Time;durP1;ratioP1;P1;durP2;ratioP2;P2;SDS_P1;SDS_P2;PMS_P1;PMS_P2;Temp;Humidity;BMP_temperature;BMP_pressure;BME280_temperature;BME280_humidity;BME280_pressure;Samples;Min_cycle;Max_cycle;Signal;HPM_P1;HPM_P2
2022/08/04 00:01:52;;;;;;;0.30;0.30;;;;;;;29.65;38.07;98979.50;5111738;28;20035;-57
2022/08/04 00:04:31;;;;;;;0.50;0.40;;;;;;;29.65;38.45;98985.13;5111521;28;20066;-58
2022/08/04 00:07:11;;;;;;;0.50;0.35;;;;;;;29.64;38.04;98988.38;5111759;28;20097;-58
2022/08/04 00:09:52;;;;;;;0.40;0.30;;;;;;;29.64;38.32;98988.38;5111516;28;20047;-58
2022/08/04 00:12:21;;;;;;;0.88;0.40;;;;;;;29.60;38.09;98980.81;5111574;28;20074;-59
2022/08/04 00:14:49;;;;;;;0.40;0.35;;;;;;;29.64;38.52;98983.50;5111695;28;20047;-58
2022/08/04 00:17:19;;;;;;;0.35;0.35;;;;;;;29.64;38.26;98983.50;5111563;28;20212;-59
2022/08/04 00:19:47;;;;;;;0.30;0.30;;;;;;;29.65;38.28;98984.31;5111310;28;20555;-57
2022/08/04 00:22:16;;;;;;;0.35;0.30;;;;;;;29.65;38.45;98984.31;5111256;28;20070;-58
2022/08/04 00:24:43;;;;;;;0.30;0.25;;;;;;;29.64;38.17;98979.91;5111028;28;20415;-57
2022/08/04 00:27:09;;;;;;;0.45;0.30;;;;;;;29.64;38.13;98977.09;5111398;28;20086;-59
2022/08/04 00:29:37;;;;;;;0.30;0.30;;;;;;;29.64;38.23;98983.50;5089557;28;20484;-58
2022/08/04 00:32:05;;;;;;;0.30;0.30;;;;;;;29.64;38.10;98977.88;5090715;28;20523;-58
2022/08/04 00:34:32;;;;;;;0.52;0.30;;;;;;;29.66;38.15;98974.63;5072559;28;20500;-58
2022/08/04 00:36:58;;;;;;;0.38;0.30;;;;;;;29.64;38.36;98977.09;5090725;28;20562;-58
2022/08/04 00:39:24;;;;;;;0.28;0.20;;;;;;;29.63;38.04;98967.84;5090538;28;20052;-58
2022/08/04 00:42:14;;;;;;;0.55;0.40;;;;;;;29.66;38.51;98974.63;5090806;28;20385;-59
2022/08/04 00:45:16;;;;;;;0.32;0.30;;;;;;;29.64;38.16;98971.44;5090458;28;20052;-59
2022/08/04 00:48:11;;;;;;;0.30;0.30;;;;;;;29.64;38.20;98972.25;5090683;28;20511;-59
2022/08/04 00:51:07;;;;;;;0.30;0.30;;;;;;;29.65;38.29;98982.31;5090482;28;20127;-59
2022/08/04 00:54:01;;;;;;;0.43;0.40;;;;;;;29.64;38.25;98983.50;5090591;28;20044;-59
2022/08/04 00:56:53;;;;;;;0.20;0.20;;;;;;;29.64;38.29;98982.72;5090568;28;20071;-58
2022/08/04 00:59:19;;;;;;;;;;;;;;;29.69;38.04;98985.78;5090895;28;20059;-59
2022/08/04 01:01:59;;;;;;;0.47;0.30;;;;;;;29.66;38.35;98985.91;5090712;28;19916;-58
2022/08/04 01:04:45;;;;;;;0.40;0.30;;;;;;;29.64;38.23;98989.16;5088629;28;20357;-59
2022/08/04 01:07:29;;;;;;;0.75;0.50;;;;;;;29.65;38.25;98998.41;5090509;28;20055;-57
2022/08/04 01:10:15;;;;;;;0.47;0.32;;;;;;;29.63;38.37;98993.22;5090101;28;20431;-58
2022/08/04 01:13:00;;;;;;;0.73;0.50;;;;;;;29.63;38.62;98993.22;5090482;28;20439;-58
2022/08/04 01:15:48;;;;;;;0.50;0.30;;;;;;;29.64;38.53;98996.81;5090341;28;20055;-59
2022/08/04 01:18:25;;;;;;;0.57;0.30;;;;;;;29.63;38.38;98993.22;5088443;28;20044;-58
2022/08/04 01:21:31;;;;;;;0.47;0.40;;;;;;;29.63;38.58;99001.66;5090216;28;20113;-58
2022/08/04 01:24:11;;;;;;;0.30;0.30;;;;;;;29.65;38.68;99001.22;5049849;28;20044;-58
2022/08/04 01:27:05;;;;;;;0.47;0.32;;;;;;;29.64;38.68;98994.00;5090119;28;20943;-58
2022/08/04 01:29:39;;;;;;;0.25;0.25;;;;;;;29.62;38.60;99002.13;5090018;28;20523;-57
2022/08/04 01:32:16;;;;;;;0.70;0.40;;;;;;;29.64;38.74;99008.09;5089989;28;20044;-59
2022/08/04 01:34:50;;;;;;;0.70;0.40;;;;;;;29.63;38.37;99001.66;5089962;28;20530;-58
2022/08/04 01:37:22;;;;;;;0.45;0.30;;;;;;;29.64;38.74;99002.47;5089769;28;20063;-58
2022/08/04 01:40:00;;;;;;;0.25;0.25;;;;;;;29.61;38.58;99001.34;5089980;28;20500;-58
2022/08/04 01:42:29;;;;;;;0.47;0.30;;;;;;;29.63;38.32;99009.34;5089791;28;20115;-58
2022/08/04 01:44:59;;;;;;;0.20;0.20;;;;;;;29.65;38.29;99010.50;5090003;28;20381;-58
2022/08/04 01:47:28;;;;;;;0.40;0.40;;;;;;;29.64;38.30;99002.47;5089825;28;20544;-58
2022/08/04 01:49:58;;;;;;;0.20;0.20;;;;;;;29.66;38.26;99008.47;5089899;28;20044;-59
2022/08/04 01:52:23;;;;;;;0.40;0.38;;;;;;;29.65;38.53;99012.50;5089703;28;20039;-59
2022/08/04 01:54:49;;;;;;;0.68;0.40;;;;;;;29.65;38.63;99009.66;5089670;28;20032;-59
2022/08/04 01:57:17;;;;;;;0.50;0.32;;;;;;;29.66;38.74;99011.28;5089036;28;20501;-59
2022/08/04 01:59:46;;;;;;;0.35;0.32;;;;;;;29.66;38.69;99014.09;5089470;28;20071;-58
2022/08/04 02:02:11;;;;;;;0.30;0.30;;;;;;;29.66;38.70;99008.47;5089463;28;20135;-59
2022/08/04 02:04:37;;;;;;;0.40;0.40;;;;;;;29.67;38.59;99010.03;5089507;28;20075;-58
2022/08/04 02:07:28;;;;;;;0.43;0.32;;;;;;;29.66;38.54;99003.63;5089266;28;20047;-58
2022/08/04 02:10:04;;;;;;;0.40;0.38;;;;;;;29.66;38.35;99002.81;5089676;28;20385;-58
2022/08/04 02:13:03;;;;;;;0.38;0.30;;;;;;;29.67;38.76;99004.41;5089502;28;20052;-58
2022/08/04 02:16:07;;;;;;;1.02;0.50;;;;;;;29.66;38.66;99002.81;5049822;28;20052;-58
2022/08/04 02:18:39;;;;;;;0.43;0.30;;;;;;;29.63;38.70;98992.44;5089239;28;20055;-59
2022/08/04 02:21:04;;;;;;;0.70;0.43;;;;;;;29.67;38.48;99001.59;5089260;28;20140;-58
2022/08/04 02:23:35;;;;;;;0.47;0.35;;;;;;;29.64;38.34;99000.44;5089174;28;20158;-58
2022/08/04 02:26:03;;;;;;;0.40;0.35;;;;;;;29.64;38.53;99002.47;5089083;28;20040;-58
2022/08/04 02:28:52;;;;;;;0.77;0.40;;;;;;;29.63;38.78;99004.50;5089298;28;20940;-58
2022/08/04 02:31:29;;;;;;;0.43;0.30;;;;;;;29.64;38.30;99005.28;5071086;28;20093;-58
2022/08/04 02:33:55;;;;;;;0.22;0.22;;;;;;;29.66;38.54;99003.63;5087424;28;20083;-59
2022/08/04 02:36:27;;;;;;;0.38;0.30;;;;;;;29.67;38.53;99012.88;5089210;28;20071;-59
2022/08/04 02:39:00;;;;;;;0.55;0.38;;;;;;;29.67;38.61;99010.81;5087571;28;20166;-58
2022/08/04 02:41:30;;;;;;;0.40;0.32;;;;;;;29.63;38.47;99001.66;5087303;28;20516;-59
2022/08/04 02:44:02;;;;;;;0.30;0.30;;;;;;;29.66;38.47;99006.44;5089182;28;20419;-58
2022/08/04 02:46:30;;;;;;;0.35;0.30;;;;;;;29.67;38.82;99010.03;5089170;28;20415;-58
2022/08/04 02:48:56;;;;;;;0.50;0.30;;;;;;;29.66;38.42;99006.44;5087262;28;20043;-58
2022/08/04 02:51:28;;;;;;;0.40;0.32;;;;;;;29.66;38.81;99002.81;5089050;28;20040;-59
2022/08/04 02:53:55;;;;;;;;;;;;;;;29.73;38.54;99002.63;5089396;28;20048;-59
2022/08/04 02:56:22;;;;;;;0.55;0.40;;;;;;;29.69;38.61;99007.56;5088809;28;20372;-57
2022/08/04 02:58:51;;;;;;;0.60;0.45;;;;;;;29.68;38.54;99011.63;5088428;28;20052;-58
2022/08/04 03:01:17;;;;;;;0.30;0.30;;;;;;;29.66;38.55;99002.81;5088598;28;20127;-58
2022/08/04 03:04:01;;;;;;;0.73;0.40;;;;;;;29.63;38.86;99003.69;5088852;28;20127;-57
2022/08/04 03:07:00;;;;;;;0.60;0.40;;;;;;;29.66;38.76;99005.66;5087150;28;20388;-58
2022/08/04 03:09:59;;;;;;;0.63;0.40;;;;;;;29.66;38.81;99002.81;5090507;28;20048;-57
2022/08/04 03:12:45;;;;;;;0.52;0.40;;;;;;;29.65;38.78;99009.66;5092200;28;20142;-59
2022/08/04 03:15:45;;;;;;;0.25;0.25;;;;;;;29.66;38.82;99002.81;5092151;28;20114;-59
2022/08/04 03:18:48;;;;;;;0.40;0.40;;;;;;;29.64;38.90;99002.47;5092252;28;20056;-58
2022/08/04 03:21:57;;;;;;;0.82;0.50;;;;;;;29.64;38.92;98999.63;5091861;28;20055;-59
2022/08/04 03:24:35;;;;;;;0.30;0.30;;;;;;;29.64;38.68;99002.47;5066255;28;20105;-59
2022/08/04 03:27:28;;;;;;;0.52;0.40;;;;;;;29.62;38.47;98993.66;5092195;28;20075;-59
2022/08/04 03:30:07;;;;;;;0.30;0.30;;;;;;;29.62;38.78;98990.84;5091955;28;20036;-59
2022/08/04 03:32:54;;;;;;;0.52;0.40;;;;;;;29.61;38.87;98992.88;5091992;28;20050;-59
2022/08/04 03:35:25;;;;;;;0.50;0.35;;;;;;;29.63;38.80;98998.84;5092028;28;20044;-59
2022/08/04 03:38:12;;;;;;;0.60;0.40;;;;;;;29.64;38.85;98996.81;5091575;28;20153;-57
2022/08/04 03:40:40;;;;;;;0.40;0.32;;;;;;;29.64;38.90;98994.78;5091714;28;20048;-59
2022/08/04 03:43:09;;;;;;;0.80;0.50;;;;;;;29.65;38.75;99002.03;5091844;28;20436;-58
2022/08/04 03:46:04;;;;;;;1.25;0.50;;;;;;;29.64;38.76;99000.44;5091689;28;20450;-58
2022/08/04 03:48:39;;;;;;;0.52;0.40;;;;;;;29.64;38.94;98999.63;5091831;28;20039;-57
2022/08/04 03:54:25;;;;;;;1.17;0.47;;;;;;;29.64;38.86;99000.44;5091752;28;20058;-59
2022/08/04 03:57:06;;;;;;;0.50;0.40;;;;;;;29.64;38.82;98991.97;5091266;28;20048;-57
2022/08/04 03:59:43;;;;;;;0.47;0.35;;;;;;;29.64;38.69;98991.19;5089751;28;20121;-58
2022/08/04 04:02:43;;;;;;;0.45;0.40;;;;;;;29.64;39.07;98994.00;5090790;28;20438;-57
2022/08/04 04:05:25;;;;;;;0.50;0.40;;;;;;;29.64;38.80;98994.00;5091396;28;20052;-59
2022/08/04 04:07:54;;;;;;;0.43;0.30;;;;;;;29.65;38.81;99002.03;5091510;28;20424;-58
2022/08/04 04:10:28;;;;;;;0.80;0.50;;;;;;;29.64;38.71;98996.81;5091348;28;20039;-58
2022/08/04 04:13:21;;;;;;;0.70;0.50;;;;;;;29.64;39.06;98999.63;5091281;28;20052;-59
2022/08/04 04:16:09;;;;;;;0.70;0.40;;;;;;;29.64;39.05;98994.00;5091295;28;20052;-59
2022/08/04 04:19:03;;;;;;;0.47;0.40;;;;;;;29.64;39.08;98991.19;5091195;28;20052;-58
2022/08/04 04:21:55;;;;;;;0.55;0.30;;;;;;;29.63;39.06;98998.06;5089657;28;20036;-57
2022/08/04 04:24:39;;;;;;;;;;;;;;;29.69;38.61;98996.28;5091723;28;20040;-59
2022/08/04 04:27:04;;;;;;;0.60;0.35;;;;;;;29.66;38.67;99003.63;5091139;28;20403;-58
2022/08/04 04:30:11;;;;;;;0.57;0.35;;;;;;;29.64;38.69;99005.28;5090857;28;20139;-58
2022/08/04 04:32:54;;;;;;;1.75;0.43;;;;;;;29.63;39.02;99007.31;5028419;28;20464;-58
2022/08/04 04:35:29;;;;;;;0.70;0.50;;;;;;;29.62;39.13;99010.56;5028510;28;20044;-59
2022/08/04 04:38:15;;;;;;;1.55;0.40;;;;;;;29.62;39.11;99016.22;5028431;28;20128;-59
2022/08/04 04:41:13;;;;;;;0.38;0.30;;;;;;;29.63;38.98;99014.97;5028617;28;20038;-59
2022/08/04 04:43:59;;;;;;;0.60;0.40;;;;;;;29.62;38.95;99002.13;5028340;28;20053;-59
2022/08/04 04:46:54;;;;;;;0.80;0.47;;;;;;;29.63;38.78;99014.97;5028394;28;20054;-58
2022/08/04 04:50:04;;;;;;;0.80;0.50;;;;;;;29.64;39.00;99022.19;5028258;28;20710;-58
2022/08/04 04:52:37;;;;;;;0.82;0.50;;;;;;;29.63;38.63;99021.41;4987756;28;20162;-58
2022/08/04 04:55:26;;;;;;;0.60;0.40;;;;;;;29.64;38.99;99016.56;4988848;28;20528;-57
2022/08/04 04:57:57;;;;;;;0.40;0.40;;;;;;;29.62;38.75;99014.19;4988622;28;20526;-58
2022/08/04 05:00:45;;;;;;;0.70;0.50;;;;;;;29.63;39.08;99012.94;4988655;28;20054;-58
2022/08/04 05:03:25;;;;;;;0.30;0.30;;;;;;;29.64;39.10;99022.97;4988595;28;20072;-58
2022/08/04 05:06:25;;;;;;;0.30;0.30;;;;;;;29.64;38.76;99020.16;4988622;28;20090;-59
2022/08/04 05:09:03;;;;;;;0.70;0.50;;;;;;;29.64;38.78;99011.69;5012514;28;20231;-59
2022/08/04 05:12:01;;;;;;;1.23;0.55;;;;;;;29.63;38.92;99020.59;5047737;28;20045;-58
2022/08/04 05:14:34;;;;;;;1.13;0.40;;;;;;;29.64;38.75;99025.00;5031558;28;20055;-58
2022/08/04 05:17:29;;;;;;;0.28;0.20;;;;;;;29.64;39.22;99022.97;5047622;28;20071;-59
2022/08/04 05:20:12;;;;;;;0.40;0.30;;;;;;;29.64;39.15;99027.81;5047513;28;20053;-59
2022/08/04 05:22:53;;;;;;;0.40;0.38;;;;;;;29.64;38.78;99027.81;5058634;28;20071;-58
2022/08/04 05:25:37;;;;;;;0.28;0.28;;;;;;;29.64;38.97;99030.66;5090149;28;20123;-59
2022/08/04 05:28:12;;;;;;;0.52;0.45;;;;;;;29.60;38.86;99028.72;5090040;28;20094;-58
2022/08/04 05:30:47;;;;;;;0.93;0.40;;;;;;;29.64;38.83;99034.25;5089945;28;20088;-59
2022/08/04 05:33:18;;;;;;;0.70;0.50;;;;;;;29.64;38.78;99041.91;5089496;28;20119;-59
2022/08/04 05:35:48;;;;;;;0.40;0.40;;;;;;;29.64;38.87;99044.75;5090153;28;20454;-58
2022/08/04 05:38:17;;;;;;;0.45;0.35;;;;;;;29.66;39.00;99042.28;5089894;28;20499;-58
2022/08/04 05:40:44;;;;;;;0.90;0.40;;;;;;;29.62;39.00;99030.31;5089768;28;20068;-58
2022/08/04 05:43:12;;;;;;;0.70;0.40;;;;;;;29.64;38.87;99037.06;5089490;28;20101;-59
2022/08/04 05:45:39;;;;;;;0.57;0.40;;;;;;;29.63;38.77;99034.69;5089688;28;20566;-58
2022/08/04 05:48:07;;;;;;;2.88;0.47;;;;;;;29.63;39.21;99040.34;5089856;28;20527;-58
2022/08/04 05:50:34;;;;;;;0.40;0.30;;;;;;;29.66;39.11;99047.94;5087914;28;20105;-58
2022/08/04 05:53:00;;;;;;;0.95;0.43;;;;;;;29.67;39.13;99043.88;5089677;28;20044;-57
2022/08/04 05:55:28;;;;;;;0.38;0.38;;;;;;;29.67;39.17;99049.50;5089676;28;20131;-58
2022/08/04 05:57:57;;;;;;;0.65;0.40;;;;;;;29.67;38.93;99052.31;5089493;28;20056;-58
2022/08/04 06:00:26;;;;;;;0.40;0.40;;;;;;;29.67;38.79;99043.88;5089500;28;20516;-58
2022/08/04 06:02:53;;;;;;;0.60;0.50;;;;;;;29.61;39.15;99046.44;5089637;28;20082;-59
2022/08/04 06:05:19;;;;;;;0.50;0.40;;;;;;;29.49;38.27;99042.28;5089439;28;20097;-58
2022/08/04 06:07:45;;;;;;;0.63;0.52;;;;;;;29.37;39.15;99045.84;5089494;28;20116;-58
2022/08/04 06:10:11;;;;;;;1.17;0.40;;;;;;;29.24;39.53;99045.75;5089611;28;20772;-58
2022/08/04 06:12:48;;;;;;;0.98;0.40;;;;;;;29.13;39.71;99045.22;5089452;28;20092;-57
2022/08/04 06:15:18;;;;;;;0.50;0.50;;;;;;;29.04;40.03;99048.69;5089436;28;20048;-58
2022/08/04 06:17:54;;;;;;;0.93;0.50;;;;;;;29.00;40.12;99041.53;5089444;28;20511;-58
2022/08/04 06:20:26;;;;;;;0.43;0.40;;;;;;;29.01;40.06;99046.75;5089433;28;20412;-58
2022/08/04 06:22:54;;;;;;;0.47;0.40;;;;;;;28.96;40.02;99041.63;5089517;28;20416;-58
2022/08/04 06:25:23;;;;;;;0.50;0.40;;;;;;;28.96;40.04;99058.53;5089314;28;20063;-59
2022/08/04 06:27:50;;;;;;;0.82;0.50;;;;;;;28.98;40.12;99049.63;5089125;28;20037;-59
2022/08/04 06:30:18;;;;;;;0.77;0.40;;;;;;;29.01;39.89;99048.78;5088962;28;20044;-58
2022/08/04 06:33:12;;;;;;;0.65;0.50;;;;;;;28.98;39.79;99056.06;5088983;28;20067;-58
2022/08/04 06:35:34;;;;;;;0.55;0.47;;;;;;;28.98;39.89;99047.63;5088438;28;20090;-58
2022/08/04 06:38:01;;;;;;;0.90;0.40;;;;;;;28.98;39.62;99056.06;5089059;28;20146;-58
2022/08/04 06:40:28;;;;;;;0.68;0.43;;;;;;;29.00;39.65;99056.41;5089006;28;20449;-58
2022/08/04 06:42:54;;;;;;;0.55;0.40;;;;;;;28.97;39.55;99054.47;5089093;28;20427;-59
2022/08/04 06:45:20;;;;;;;0.40;0.40;;;;;;;28.95;39.70;99051.31;5092229;28;20044;-59
2022/08/04 06:47:47;;;;;;;0.63;0.50;;;;;;;28.97;39.31;99053.69;5092580;28;20197;-58
2022/08/04 06:50:15;;;;;;;0.57;0.50;;;;;;;28.94;39.63;99049.75;5092745;28;20127;-57
2022/08/04 06:52:43;;;;;;;0.63;0.47;;;;;;;28.96;39.47;99064.16;5092811;28;20036;-59
2022/08/04 06:55:10;;;;;;;1.23;0.40;;;;;;;28.96;39.26;99061.34;5092655;28;20048;-59
2022/08/04 06:57:37;;;;;;;0.55;0.40;;;;;;;28.93;39.49;99059.41;5092300;28;20059;-58
2022/08/04 07:00:10;;;;;;;0.50;0.40;;;;;;;28.92;39.46;99063.44;5092330;28;20052;-59
2022/08/04 07:02:49;;;;;;;0.50;0.43;;;;;;;28.93;39.01;99067.06;5092180;28;20431;-59
2022/08/04 07:05:15;;;;;;;0.35;0.35;;;;;;;28.93;39.27;99065.03;5092385;28;20047;-58
2022/08/04 07:07:43;;;;;;;0.63;0.52;;;;;;;28.92;39.18;99063.44;5090112;28;20415;-59
2022/08/04 07:10:09;;;;;;;0.47;0.40;;;;;;;28.92;38.97;99063.44;5092222;28;20071;-59
2022/08/04 07:12:38;;;;;;;0.38;0.30;;;;;;;28.91;39.03;99058.25;5092124;28;20079;-58
2022/08/04 07:15:05;;;;;;;0.80;0.50;;;;;;;28.91;39.04;99059.06;5092057;28;20055;-58
2022/08/04 07:17:33;;;;;;;1.38;0.40;;;;;;;28.91;39.06;99058.25;5092073;28;20036;-58
2022/08/04 07:20:00;;;;;;;0.70;0.50;;;;;;;28.85;38.91;99055.13;5092207;28;20476;-58
2022/08/04 07:22:26;;;;;;;0.50;0.40;;;;;;;28.84;39.09;99058.41;5091638;28;20063;-58
2022/08/04 07:24:56;;;;;;;0.68;0.45;;;;;;;28.85;38.99;99060.78;5091667;28;20047;-58
2022/08/04 07:27:23;;;;;;;0.43;0.32;;;;;;;28.88;38.82;99065.53;5091781;28;20086;-59
2022/08/04 07:29:49;;;;;;;0.50;0.40;;;;;;;28.89;38.83;99055.06;5092081;28;20528;-59
2022/08/04 07:32:17;;;;;;;0.30;0.30;;;;;;;28.87;38.80;99060.34;5089652;28;20055;-59
2022/08/04 07:34:43;;;;;;;0.60;0.50;;;;;;;28.88;38.80;99057.09;5092076;28;20578;-59
2022/08/04 07:37:09;;;;;;;0.95;0.50;;;;;;;28.86;38.70;99062.34;5091797;28;20039;-58
2022/08/04 07:39:35;;;;;;;0.80;0.60;;;;;;;28.86;38.69;99062.34;5091608;28;20465;-59
2022/08/04 07:42:03;;;;;;;0.68;0.50;;;;;;;28.87;38.65;99058.31;5091625;28;20415;-59
2022/08/04 07:44:30;;;;;;;0.65;0.50;;;;;;;28.85;38.57;99055.13;5091675;28;20044;-58
2022/08/04 07:46:56;;;;;;;0.70;0.50;;;;;;;28.84;38.41;99047.13;5091403;28;20512;-58
2022/08/04 07:49:23;;;;;;;0.43;0.43;;;;;;;28.85;38.38;99045.91;5091563;28;20416;-58
2022/08/04 07:51:50;;;;;;;0.40;0.40;;;;;;;28.85;38.69;99043.88;5091521;28;20055;-58
2022/08/04 07:54:17;;;;;;;0.75;0.50;;;;;;;28.83;38.40;99046.34;5091064;28;20071;-59
2022/08/04 07:56:43;;;;;;;0.45;0.45;;;;;;;28.84;38.45;99047.13;5091732;28;20048;-59
2022/08/04 07:59:08;;;;;;;0.63;0.40;;;;;;;28.86;38.62;99047.47;5091433;28;20051;-59
2022/08/04 08:01:35;;;;;;;0.45;0.38;;;;;;;28.83;38.34;99042.75;5091313;28;20040;-58
2022/08/04 08:04:01;;;;;;;0.30;0.30;;;;;;;28.81;38.48;99040.38;5091253;28;20044;-57
2022/08/04 08:06:28;;;;;;;0.40;0.38;;;;;;;28.83;38.40;99043.53;5091255;28;20508;-58
2022/08/04 08:08:59;;;;;;;0.50;0.40;;;;;;;28.81;38.31;99043.19;5091322;28;20097;-59
2022/08/04 08:11:25;;;;;;;0.40;0.38;;;;;;;28.83;38.14;99032.28;5091139;28;20047;-58
2022/08/04 08:13:51;;;;;;;0.60;0.40;;;;;;;28.82;38.38;99035.53;5091270;28;20496;-58
2022/08/04 08:16:19;;;;;;;0.57;0.40;;;;;;;28.81;38.26;99037.56;5091197;28;20059;-58
2022/08/04 08:18:46;;;;;;;0.52;0.40;;;;;;;28.78;38.35;99033.59;5090977;28;20083;-59
2022/08/04 08:21:12;;;;;;;0.32;0.32;;;;;;;28.77;38.57;99029.19;5090784;28;20148;-58
2022/08/04 08:23:38;;;;;;;0.85;0.50;;;;;;;28.72;39.00;99017.66;5091194;28;20571;-58
2022/08/04 08:26:05;;;;;;;0.38;0.38;;;;;;;28.77;39.22;99022.75;5090961;28;20074;-57
2022/08/04 08:28:30;;;;;;;0.80;0.40;;;;;;;28.77;38.99;99022.75;5089042;28;20052;-58
2022/08/04 08:30:56;;;;;;;0.65;0.38;;;;;;;28.82;38.91;99027.09;5090970;28;20042;-58
2022/08/04 08:33:23;;;;;;;0.40;0.30;;;;;;;28.82;39.08;99019.44;5090873;28;20060;-59
2022/08/04 08:36:10;;;;;;;0.77;0.50;;;;;;;28.78;38.35;99018.72;5091027;28;20044;-59
2022/08/04 08:38:50;;;;;;;0.40;0.30;;;;;;;28.76;39.03;99018.38;5090735;28;20044;-58
2022/08/04 08:41:34;;;;;;;0.90;0.40;;;;;;;28.72;39.14;99014.84;5090617;28;20074;-59
2022/08/04 08:44:10;;;;;;;0.70;0.38;;;;;;;28.71;39.18;99010.44;5090917;28;20134;-59
2022/08/04 08:46:57;;;;;;;0.30;0.30;;;;;;;28.66;39.23;99008.16;5090740;28;20052;-58
2022/08/04 08:49:44;;;;;;;0.45;0.43;;;;;;;28.69;39.32;99004.47;5090724;28;20441;-58
2022/08/04 08:52:46;;;;;;;0.57;0.40;;;;;;;28.71;39.14;99002.00;5090605;28;20055;-58
2022/08/04 08:55:49;;;;;;;0.65;0.50;;;;;;;28.76;39.19;99001.47;5090506;28;20109;-58
2022/08/04 08:58:48;;;;;;;0.60;0.40;;;;;;;28.75;39.14;98997.09;5090540;28;20109;-59
2022/08/04 09:01:22;;;;;;;0.52;0.40;;;;;;;28.76;38.81;98982.56;5090783;28;20097;-58
2022/08/04 09:04:17;;;;;;;1.00;0.50;;;;;;;28.79;38.80;98983.69;5090423;28;20055;-58
2022/08/04 09:06:57;;;;;;;0.57;0.40;;;;;;;28.84;38.82;98976.75;5089169;28;20100;-57
2022/08/04 09:09:32;;;;;;;0.35;0.30;;;;;;;28.86;38.81;98983.53;5090294;28;20467;-58
2022/08/04 09:11:57;;;;;;;0.40;0.40;;;;;;;28.87;38.98;98981.53;5090130;28;20051;-58
2022/08/04 09:14:38;;;;;;;0.88;0.30;;;;;;;28.88;38.67;98977.47;5090105;28;20060;-58
2022/08/04 09:17:09;;;;;;;0.28;0.28;;;;;;;28.86;38.92;98975.06;5090406;28;20132;-58
2022/08/04 09:19:38;;;;;;;0.47;0.40;;;;;;;28.89;38.67;98970.59;5090113;28;20044;-58
2022/08/04 09:22:12;;;;;;;0.30;0.30;;;;;;;28.92;38.58;98973.34;5089990;28;20045;-58
2022/08/04 09:24:53;;;;;;;0.30;0.30;;;;;;;28.92;38.98;98961.28;5090006;28;20040;-58
2022/08/04 09:27:44;;;;;;;0.40;0.40;;;;;;;28.92;38.74;98966.94;5090272;28;20048;-57
2022/08/04 09:30:12;;;;;;;0.50;0.32;;;;;;;28.89;38.25;98960.13;5089966;28;20044;-58
2022/08/04 09:32:37;;;;;;;0.35;0.35;;;;;;;28.86;38.52;98961.00;5089979;28;20066;-58
2022/08/04 09:35:27;;;;;;;0.30;0.30;;;;;;;28.82;38.80;98965.16;5090109;28;20563;-58
2022/08/04 09:38:22;;;;;;;0.52;0.40;;;;;;;28.77;39.19;98958.03;5090111;28;20040;-59
2022/08/04 09:41:12;;;;;;;0.20;0.20;;;;;;;28.79;39.34;98956.38;5089294;28;20075;-58
2022/08/04 09:43:53;;;;;;;0.60;0.50;;;;;;;28.83;39.00;98959.09;5088691;28;20066;-57
2022/08/04 09:46:43;;;;;;;0.50;0.38;;;;;;;28.82;38.64;98957.50;5090007;28;20044;-58
2022/08/04 09:49:16;;;;;;;0.35;0.32;;;;;;;28.76;38.68;98948.00;5088658;28;20036;-59
2022/08/04 09:51:54;;;;;;;0.70;0.38;;;;;;;28.70;39.25;98949.75;5089716;28;20098;-59
2022/08/04 09:54:38;;;;;;;0.30;0.30;;;;;;;28.68;39.31;98955.84;5089737;28;20040;-58
2022/08/04 09:57:30;;;;;;;0.55;0.40;;;;;;;28.69;39.25;98943.34;5089738;28;20098;-59
2022/08/04 10:00:00;;;;;;;0.68;0.50;;;;;;;28.73;39.17;98940.44;5089844;28;20028;-58
2022/08/04 10:02:31;;;;;;;0.65;0.47;;;;;;;28.73;39.25;98932.78;5086921;28;20067;-58
2022/08/04 10:05:01;;;;;;;0.55;0.32;;;;;;;28.76;38.30;98931.13;5087867;28;20044;-57
2022/08/04 10:07:29;;;;;;;0.40;0.38;;;;;;;28.72;38.98;98930.41;5087855;28;20059;-58
2022/08/04 10:10:16;;;;;;;0.43;0.40;;;;;;;28.66;39.26;98918.13;5089470;28;20048;-58
2022/08/04 10:13:08;;;;;;;0.65;0.50;;;;;;;28.65;39.25;98922.16;5089624;28;20120;-57
2022/08/04 10:15:58;;;;;;;0.40;0.40;;;;;;;28.67;39.33;98923.28;5089371;28;20048;-58
2022/08/04 10:18:52;;;;;;;0.40;0.35;;;;;;;28.71;39.13;98912.72;5089228;28;20376;-58
2022/08/04 10:21:25;;;;;;;0.50;0.45;;;;;;;28.77;38.93;98915.81;5087418;28;20044;-58
2022/08/04 10:23:57;;;;;;;0.40;0.30;;;;;;;28.78;38.71;98903.31;5089165;28;20083;-59
2022/08/04 10:26:50;;;;;;;0.70;0.40;;;;;;;28.72;38.32;98897.44;5089243;28;20043;-58
2022/08/04 10:29:21;;;;;;;0.50;0.40;;;;;;;28.68;39.38;98893.13;5089166;28;20101;-58
2022/08/04 10:31:59;;;;;;;0.43;0.30;;;;;;;28.60;39.19;98894.53;5089094;28;20048;-59
2022/08/04 10:34:35;;;;;;;0.50;0.30;;;;;;;28.64;39.25;98892.41;5089076;28;20067;-58
2022/08/04 10:37:19;;;;;;;0.40;0.30;;;;;;;28.67;39.05;98894.38;5089043;28;20461;-58
2022/08/04 10:42:45;;;;;;;0.55;0.30;;;;;;;28.76;38.56;98869.19;5089047;28;20066;-58
2022/08/04 10:45:22;;;;;;;0.35;0.35;;;;;;;28.77;38.80;98874.38;5089146;28;20118;-58
2022/08/04 10:48:17;;;;;;;0.75;0.47;;;;;;;28.81;39.00;98881.94;5089095;28;20419;-58
2022/08/04 10:50:58;;;;;;;0.80;0.50;;;;;;;28.82;38.58;98875.06;5052399;28;20052;-58
2022/08/04 10:53:28;;;;;;;0.28;0.22;;;;;;;28.85;38.58;98866.53;5089019;28;20143;-57
2022/08/04 10:56:21;;;;;;;0.82;0.40;;;;;;;28.85;38.68;98869.34;5089028;28;20040;-57
2022/08/04 10:58:51;;;;;;;;;;;;;;;28.91;38.02;98870.41;5086686;28;20076;-58
2022/08/04 11:01:48;;;;;;;0.70;0.40;;;;;;;28.81;38.49;98860.22;5088688;28;19916;-59
2022/08/04 11:04:44;;;;;;;0.40;0.40;;;;;;;28.72;39.13;98858.03;5069679;28;20134;-58
2022/08/04 11:07:12;;;;;;;0.55;0.40;;;;;;;28.69;38.74;98858.91;5088741;28;20426;-59
2022/08/04 11:09:41;;;;;;;0.63;0.45;;;;;;;28.70;39.04;98849.22;5088731;28;20056;-58
2022/08/04 11:12:16;;;;;;;0.35;0.35;;;;;;;28.75;38.84;98851.50;5088782;28;20048;-58
2022/08/04 11:15:17;;;;;;;0.85;0.43;;;;;;;28.76;38.94;98847.47;5088590;28;20056;-58
2022/08/04 11:17:49;;;;;;;0.40;0.40;;;;;;;28.82;38.55;98839.28;5088469;28;20131;-57
2022/08/04 11:20:22;;;;;;;0.43;0.40;;;;;;;28.86;38.71;98848.41;5088543;28;20032;-58
2022/08/04 11:23:02;;;;;;;0.40;0.30;;;;;;;28.81;38.09;98842.53;5088670;28;20500;-59
2022/08/04 11:25:35;;;;;;;0.35;0.30;;;;;;;28.74;38.62;98840.69;5088422;28;20060;-58
2022/08/04 11:28:18;;;;;;;0.52;0.38;;;;;;;28.71;38.94;98838.75;5088487;28;20127;-59
2022/08/04 11:31:03;;;;;;;0.70;0.40;;;;;;;28.70;38.91;98826.72;5090554;28;20427;-58
2022/08/04 11:33:28;;;;;;;0.38;0.35;;;;;;;28.74;38.97;98835.06;5073760;28;20136;-58
2022/08/04 11:36:12;;;;;;;0.40;0.40;;;;;;;28.73;38.65;98830.69;5091952;28;20511;-58
2022/08/04 11:39:02;;;;;;;0.65;0.50;;;;;;;28.78;38.57;98821.69;5091714;28;20040;-58
2022/08/04 11:41:47;;;;;;;0.40;0.30;;;;;;;28.81;38.58;98820.81;5091791;28;20128;-59
2022/08/04 11:44:43;;;;;;;0.32;0.30;;;;;;;28.83;38.47;98820.34;5091811;28;20469;-58
2022/08/04 11:47:33;;;;;;;0.75;0.40;;;;;;;28.84;38.62;98816.31;5091575;28;20044;-59
2022/08/04 11:50:20;;;;;;;0.25;0.25;;;;;;;28.86;38.57;98811.00;5039292;28;20056;-58
2022/08/04 11:52:47;;;;;;;0.40;0.40;;;;;;;28.88;38.15;98803.72;5091459;28;20086;-58
2022/08/04 11:55:15;;;;;;;0.40;0.40;;;;;;;28.84;37.32;98805.84;5091506;28;20036;-58
2022/08/04 11:57:40;;;;;;;0.50;0.35;;;;;;;28.76;38.52;98796.78;5091354;28;20432;-59
2022/08/04 12:00:11;;;;;;;0.40;0.32;;;;;;;28.70;38.85;98807.00;5091694;28;20515;-58
2022/08/04 12:02:43;;;;;;;0.55;0.40;;;;;;;28.72;38.58;98804.56;5087912;28;20052;-58
2022/08/04 12:05:09;;;;;;;0.52;0.40;;;;;;;28.73;38.76;98796.91;5091485;28;20056;-59
2022/08/04 12:08:19;;;;;;;0.52;0.40;;;;;;;28.77;38.76;98797.59;5091324;28;20059;-58
2022/08/04 12:11:25;;;;;;;0.75;0.50;;;;;;;28.77;37.85;98797.59;5090341;28;20120;-57
2022/08/04 12:14:13;;;;;;;0.60;0.40;;;;;;;28.70;38.70;98794.97;5091020;28;20044;-58
2022/08/04 12:16:51;;;;;;;0.70;0.50;;;;;;;28.65;38.80;98803.97;5089290;28;20515;-58
2022/08/04 12:19:49;;;;;;;0.70;0.40;;;;;;;28.68;38.79;98800.25;5090970;28;20410;-58
2022/08/04 12:22:20;;;;;;;0.60;0.45;;;;;;;28.69;38.72;98784.94;5083625;28;20071;-59
2022/08/04 12:25:08;;;;;;;0.75;0.47;;;;;;;28.73;38.95;98786.44;5073315;28;20421;-59
2022/08/04 12:27:45;;;;;;;0.57;0.45;;;;;;;28.76;38.75;98773.50;5090179;28;20167;-57